createdAt,value
2019-03-10T00:00:22.269Z,100352.22
2019-03-10T00:02:55.651Z,100348.27
2019-03-10T00:05:26.971Z,100342.59
2019-03-10T00:07:58.255Z,100336.13
2019-03-10T00:10:29.447Z,100340.08
2019-03-10T00:13:00.794Z,100340.22
2019-03-10T00:15:32.131Z,100341.33
2019-03-10T00:18:04.642Z,100339.94
2019-03-10T00:20:40.975Z,100341.34
2019-03-10T00:23:12.356Z,100341.00
2019-03-10T00:25:43.558Z,100335.96
2019-03-10T00:28:14.945Z,100334.29
2019-03-10T00:30:48.847Z,100326.54
2019-03-10T00:33:20.218Z,100330.10
2019-03-10T00:35:51.451Z,100326.95
2019-03-10T00:38:22.719Z,100322.02
2019-03-10T00:41:06.387Z,100329.17
2019-03-10T00:44:04.192Z,100355.50
2019-03-10T00:46:48.579Z,100389.47
2019-03-10T00:49:28.763Z,100380.00
2019-03-10T00:52:12.238Z,100378.28
2019-03-10T00:54:43.635Z,100363.84
2019-03-10T00:57:16.036Z,100364.86
2019-03-10T00:59:47.410Z,100343.33
2019-03-10T01:02:18.891Z,100342.40
2019-03-10T01:04:50.107Z,100340.86
2019-03-10T01:07:21.329Z,100363.93
2019-03-10T01:09:52.538Z,100352.93
2019-03-10T01:12:23.778Z,100346.13
2019-03-10T01:14:55.044Z,100355.48
2019-03-10T01:17:26.183Z,100358.20
2019-03-10T01:19:57.826Z,100349.91
2019-03-10T01:22:29.356Z,100350.30
2019-03-10T01:25:00.478Z,100356.75
2019-03-10T01:27:31.711Z,100340.78
2019-03-10T01:30:03.234Z,100328.80
2019-03-10T01:32:44.329Z,100334.25
2019-03-10T01:35:18.742Z,100328.13
2019-03-10T01:37:49.860Z,100330.68
2019-03-10T01:40:21.237Z,100324.86
2019-03-10T01:42:52.598Z,100320.39
2019-03-10T01:45:23.890Z,100317.28
2019-03-10T01:47:55.037Z,100313.47
2019-03-10T01:50:26.505Z,100312.95
2019-03-10T01:52:57.873Z,100312.48
2019-03-10T01:55:28.987Z,100317.49
2019-03-10T01:58:00.245Z,100320.08
2019-03-10T02:00:31.655Z,100312.38
2019-03-10T02:03:03.285Z,100312.17
2019-03-10T02:05:34.454Z,100316.27
2019-03-10T02:08:05.749Z,100307.22
2019-03-10T02:10:37.242Z,100298.52
2019-03-10T02:13:08.360Z,100288.78
2019-03-10T02:15:40.099Z,100289.37
2019-03-10T02:18:11.434Z,100283.20
2019-03-10T02:20:42.869Z,100279.68
2019-03-10T02:23:13.883Z,100274.87
2019-03-10T02:25:45.106Z,100261.88
2019-03-10T02:28:16.764Z,100255.05
2019-03-10T02:30:47.921Z,100244.52
2019-03-10T02:33:19.077Z,100240.83
2019-03-10T02:35:50.414Z,100232.19
2019-03-10T02:38:21.481Z,100230.02
2019-03-10T02:40:52.750Z,100221.13
2019-03-10T02:43:24.437Z,100224.28
2019-03-10T02:45:55.621Z,100220.98
2019-03-10T02:48:26.805Z,100209.14
2019-03-10T02:50:58.119Z,100200.91
2019-03-10T02:53:29.233Z,100190.69
2019-03-10T02:56:00.412Z,100192.47
2019-03-10T02:58:31.762Z,100196.27
2019-03-10T03:01:03.693Z,100201.95
2019-03-10T03:03:34.724Z,100198.70
2019-03-10T03:06:06.073Z,100198.71
2019-03-10T03:08:37.412Z,100200.81
2019-03-10T03:11:11.761Z,100213.72
2019-03-10T03:13:41.693Z,100205.30
2019-03-10T03:16:13.003Z,100198.01
2019-03-10T03:18:44.378Z,100195.77
2019-03-10T03:21:15.932Z,100199.33
2019-03-10T03:23:47.142Z,100197.08
2019-03-10T03:26:18.390Z,100197.08
2019-03-10T03:28:49.611Z,100191.81
2019-03-10T03:31:20.763Z,100182.06
2019-03-10T03:33:52.173Z,100178.80
2019-03-10T03:36:29.265Z,100176.71
2019-03-10T03:39:13.091Z,100177.02
2019-03-10T03:41:45.435Z,100182.19
2019-03-10T03:44:17.022Z,100185.53
2019-03-10T03:46:48.239Z,100184.61
2019-03-10T03:49:19.582Z,100183.59
2019-03-10T03:51:50.794Z,100179.59
2019-03-10T03:54:23.294Z,100191.43
2019-03-10T03:56:54.608Z,100187.70
2019-03-10T03:59:25.825Z,100176.84
2019-03-10T04:01:58.792Z,100181.05
2019-03-10T04:04:30.033Z,100177.65
2019-03-10T04:07:01.289Z,100177.39
2019-03-10T04:09:32.584Z,100185.09
2019-03-10T04:12:03.850Z,100185.98
2019-03-10T04:14:34.966Z,100186.34
2019-03-10T04:17:06.279Z,100189.63
2019-03-10T04:19:37.625Z,100183.35
2019-03-10T04:22:08.687Z,100186.23
2019-03-10T04:24:40.624Z,100184.09
2019-03-10T04:27:12.089Z,100172.16
2019-03-10T04:29:43.263Z,100177.42
2019-03-10T04:32:14.847Z,100168.85
2019-03-10T04:34:46.136Z,100171.33
2019-03-10T04:37:17.440Z,100173.06
2019-03-10T04:39:48.653Z,100174.52
2019-03-10T04:42:19.906Z,100171.20
2019-03-10T04:44:51.306Z,100168.84
2019-03-10T04:47:22.849Z,100165.77
2019-03-10T04:49:54.154Z,100159.81
2019-03-10T04:52:25.343Z,100153.63
2019-03-10T04:55:04.288Z,100157.56
2019-03-10T04:57:35.558Z,100157.33
2019-03-10T05:00:07.879Z,100159.55
2019-03-10T05:02:39.928Z,100156.92
2019-03-10T05:05:16.920Z,100163.25
2019-03-10T05:07:48.153Z,100167.91
2019-03-10T05:10:19.420Z,100178.50
2019-03-10T05:12:50.551Z,100173.30
2019-03-10T05:15:21.727Z,100181.16
2019-03-10T05:17:53.234Z,100174.20
2019-03-10T05:20:24.381Z,100174.74
2019-03-10T05:23:15.342Z,100174.55
2019-03-10T05:25:46.631Z,100167.30
2019-03-10T05:28:18.937Z,100171.31
2019-03-10T05:30:50.251Z,100169.81
2019-03-10T05:33:21.456Z,100169.07
2019-03-10T05:35:52.650Z,100164.38
2019-03-10T05:38:23.906Z,100161.19
2019-03-10T05:40:55.142Z,100158.61
2019-03-10T05:43:27.355Z,100154.34
2019-03-10T05:45:58.592Z,100147.95
2019-03-10T05:48:29.830Z,100154.77
2019-03-10T05:51:00.933Z,100148.13
2019-03-10T05:53:32.095Z,100147.11
2019-03-10T05:56:03.368Z,100139.78
2019-03-10T05:58:35.383Z,100142.83
2019-03-10T06:01:06.908Z,100143.00
2019-03-10T06:03:40.329Z,100132.70
2019-03-10T06:06:15.630Z,100136.04
2019-03-10T06:08:46.743Z,100130.91
2019-03-10T06:11:17.932Z,100129.93
2019-03-10T06:13:50.151Z,100126.22
2019-03-10T06:16:21.405Z,100127.81
2019-03-10T06:18:52.588Z,100131.30
2019-03-10T06:21:23.907Z,100134.21
2019-03-10T06:23:55.232Z,100129.34
2019-03-10T06:26:26.848Z,100131.15
2019-03-10T06:28:59.052Z,100125.09
2019-03-10T06:31:30.357Z,100112.59
2019-03-10T06:34:01.553Z,100120.67
2019-03-10T06:36:33.786Z,100115.21
2019-03-10T06:39:06.050Z,100112.20
2019-03-10T06:41:37.244Z,100106.59
2019-03-10T06:44:08.329Z,100100.93
2019-03-10T06:46:39.553Z,100099.73
2019-03-10T06:49:10.823Z,100096.92
2019-03-10T06:51:42.143Z,100099.40
2019-03-10T06:54:13.316Z,100088.76
2019-03-10T06:56:44.656Z,100085.49
2019-03-10T06:59:15.929Z,100086.97
2019-03-10T07:01:47.118Z,100076.77
2019-03-10T07:04:18.279Z,100071.46
2019-03-10T07:06:49.415Z,100069.35
2019-03-10T07:09:20.722Z,100067.70
2019-03-10T07:11:52.031Z,100058.22
2019-03-10T07:14:23.096Z,100056.27
2019-03-10T07:16:54.510Z,100056.38
2019-03-10T07:19:25.654Z,100052.05
2019-03-10T07:21:58.808Z,100046.67
2019-03-10T07:24:29.858Z,100046.46
2019-03-10T07:27:02.286Z,100052.91
2019-03-10T07:29:35.646Z,100045.53
2019-03-10T07:32:15.029Z,100051.57
2019-03-10T07:35:03.310Z,100057.41
2019-03-10T07:37:42.235Z,100053.81
2019-03-10T07:40:16.255Z,100039.75
2019-03-10T07:42:53.329Z,100046.70
2019-03-10T07:45:29.655Z,100040.80
2019-03-10T07:48:20.771Z,100046.95
2019-03-10T07:51:09.878Z,100042.75
2019-03-10T07:53:42.980Z,100038.22
2019-03-10T07:56:19.109Z,100034.14
2019-03-10T07:59:01.255Z,100035.81
2019-03-10T08:01:34.264Z,100032.05
2019-03-10T08:04:07.181Z,100031.87
2019-03-10T08:06:44.496Z,100033.91
2019-03-10T08:09:17.521Z,100043.82
2019-03-10T08:12:08.766Z,100048.92
2019-03-10T08:14:44.598Z,100043.45
2019-03-10T08:17:26.856Z,100035.62
2019-03-10T08:20:05.560Z,100035.02
2019-03-10T08:22:41.265Z,100032.55
2019-03-10T08:25:14.735Z,100038.33
2019-03-10T08:28:01.878Z,100031.91
2019-03-10T08:30:38.883Z,100026.28
2019-03-10T08:33:14.118Z,100020.41
2019-03-10T08:35:46.922Z,100027.27
2019-03-10T08:38:35.224Z,100023.73
2019-03-10T08:41:11.100Z,100021.20
2019-03-10T08:43:52.976Z,100019.98
2019-03-10T08:46:29.292Z,100026.49
2019-03-10T08:49:14.464Z,100009.50
2019-03-10T08:51:52.956Z,100010.94
2019-03-10T08:54:25.991Z,100001.30
2019-03-10T08:57:10.020Z,99994.59
2019-03-10T08:59:47.183Z,99987.92
2019-03-10T09:02:19.912Z,99985.16
2019-03-10T09:04:55.495Z,99976.48
2019-03-10T09:07:31.320Z,99983.05
2019-03-10T09:10:13.263Z,99984.16
2019-03-10T09:12:52.016Z,99986.67
2019-03-10T09:15:33.804Z,99978.16
2019-03-10T09:18:12.678Z,99967.36
2019-03-10T09:20:45.817Z,99976.63
2019-03-10T09:23:21.689Z,99974.98
2019-03-10T09:26:13.039Z,99968.42
2019-03-10T09:28:49.005Z,99971.03
2019-03-10T09:31:39.733Z,99958.03
2019-03-10T09:34:30.558Z,99953.00
2019-03-10T09:37:04.339Z,99946.58
2019-03-10T09:39:37.943Z,99938.50
2019-03-10T09:42:27.070Z,99930.08
2019-03-10T09:45:05.832Z,99925.06
2019-03-10T09:47:38.715Z,99924.63
2019-03-10T09:50:28.117Z,99918.70
2019-03-10T09:53:18.941Z,99910.30
2019-03-10T09:55:51.829Z,99910.84
2019-03-10T09:58:41.001Z,99902.42
2019-03-10T10:01:16.652Z,99899.18
2019-03-10T10:03:58.589Z,99897.80
2019-03-10T10:06:37.609Z,99894.45
2019-03-10T10:09:16.043Z,99890.12
2019-03-10T10:12:13.401Z,99882.08
2019-03-10T10:14:58.673Z,99887.28
2019-03-10T10:17:34.220Z,99871.36
2019-03-10T10:20:10.730Z,99864.34
2019-03-10T10:22:46.388Z,99851.55
2019-03-10T10:25:29.771Z,99838.02
2019-03-10T10:28:02.876Z,99838.72
2019-03-10T10:30:38.691Z,99820.33
2019-03-10T10:33:14.494Z,99829.30
2019-03-10T10:35:50.336Z,99817.10
2019-03-10T10:38:37.632Z,99808.88
2019-03-10T10:41:27.800Z,99803.89
2019-03-10T10:44:22.137Z,99793.69
2019-03-10T10:46:58.383Z,99784.47
2019-03-10T10:49:43.301Z,99775.02
2019-03-10T10:52:34.609Z,99774.64
2019-03-10T10:55:25.421Z,99759.27
2019-03-10T10:58:00.332Z,99762.35
2019-03-10T11:00:33.054Z,99748.30
2019-03-10T11:03:06.355Z,99740.00
2019-03-10T11:05:49.043Z,99735.82
2019-03-10T11:08:24.620Z,99725.38
2019-03-10T11:11:03.723Z,99717.05
2019-03-10T11:13:44.382Z,99701.38
2019-03-10T11:16:29.397Z,99694.66
2019-03-10T11:19:18.452Z,99686.75
2019-03-10T11:22:09.702Z,99698.44
2019-03-10T11:24:46.145Z,99692.72
2019-03-10T11:27:19.979Z,99692.59
2019-03-10T11:29:53.046Z,99678.48
2019-03-10T11:32:26.062Z,99671.92
2019-03-10T11:35:05.236Z,99666.88
2019-03-10T11:37:41.569Z,99658.94
2019-03-10T11:40:26.088Z,99664.31
2019-03-10T11:43:05.227Z,99657.98
2019-03-10T11:45:40.474Z,99651.23
2019-03-10T11:48:22.169Z,99656.25
2019-03-10T11:51:00.730Z,99642.86
2019-03-10T11:53:36.482Z,99632.72
2019-03-10T11:56:27.985Z,99622.69
2019-03-10T11:59:00.933Z,99626.66
2019-03-10T12:01:36.655Z,99628.58
2019-03-10T12:04:10.500Z,99618.77
2019-03-10T12:06:51.549Z,99617.25
2019-03-10T12:09:24.060Z,99605.23
2019-03-10T12:11:55.725Z,99597.09
2019-03-10T12:14:26.953Z,99593.29
2019-03-10T12:17:00.720Z,99593.05
2019-03-10T12:19:32.052Z,99588.39
2019-03-10T12:22:04.967Z,99567.80
2019-03-10T12:24:36.763Z,99562.45
2019-03-10T12:27:08.224Z,99551.64
2019-03-10T12:29:39.441Z,99547.52
2019-03-10T12:32:10.742Z,99525.21
2019-03-10T12:34:42.232Z,99523.67
2019-03-10T12:37:13.408Z,99524.75
2019-03-10T12:39:44.473Z,99515.16
2019-03-10T12:42:15.604Z,99512.84
2019-03-10T12:44:47.000Z,99507.84
2019-03-10T12:47:18.545Z,99508.90
2019-03-10T12:49:49.716Z,99510.36
2019-03-10T12:52:21.003Z,99506.17
2019-03-10T12:54:52.299Z,99501.06
2019-03-10T12:57:23.574Z,99501.41
2019-03-10T12:59:54.870Z,99506.27
2019-03-10T13:02:27.578Z,99494.84
2019-03-10T13:04:58.824Z,99484.66
2019-03-10T13:07:32.127Z,99481.24
2019-03-10T13:10:03.106Z,99483.55
2019-03-10T13:12:34.439Z,99478.38
2019-03-10T13:15:10.977Z,99482.80
2019-03-10T13:17:42.180Z,99477.10
2019-03-10T13:20:13.749Z,99474.71
2019-03-10T13:22:45.244Z,99476.28
2019-03-10T13:25:17.563Z,99501.19
2019-03-10T13:28:01.200Z,99502.02
2019-03-10T13:30:37.687Z,99490.94
2019-03-10T13:33:41.468Z,99526.59
2019-03-10T13:36:19.311Z,99553.20
2019-03-10T13:39:08.990Z,99536.48
2019-03-10T13:42:04.710Z,99559.73
2019-03-10T13:44:28.288Z,99541.53
2019-03-10T13:46:58.015Z,99541.84
2019-03-10T13:49:29.149Z,99545.08
2019-03-10T13:52:01.546Z,99554.75
2019-03-10T13:54:33.969Z,99531.50
2019-03-10T13:57:05.163Z,99572.20
2019-03-10T13:59:36.483Z,99554.66
2019-03-10T14:02:07.671Z,99548.02
2019-03-10T14:04:39.053Z,99566.02
2019-03-10T14:07:10.539Z,99556.55
2019-03-10T14:09:41.693Z,99540.66
2019-03-10T14:12:12.859Z,99535.49
2019-03-10T14:14:44.212Z,99538.59
2019-03-10T14:17:15.491Z,99527.42
2019-03-10T14:19:46.890Z,99529.11
2019-03-10T14:22:18.367Z,99523.64
2019-03-10T14:24:49.758Z,99511.44
2019-03-10T14:27:21.067Z,99508.44
2019-03-10T14:29:52.191Z,99507.96
2019-03-10T14:32:24.652Z,99507.33
2019-03-10T14:34:55.938Z,99507.40
2019-03-10T14:37:27.183Z,99513.13
2019-03-10T14:39:58.397Z,99517.17
2019-03-10T14:42:30.722Z,99533.33
2019-03-10T14:45:01.656Z,99587.41
2019-03-10T14:47:34.033Z,99551.31
2019-03-10T14:50:07.773Z,99560.63
2019-03-10T14:52:38.790Z,99578.51
2019-03-10T14:55:18.758Z,99577.70
2019-03-10T14:57:50.004Z,99595.66
2019-03-10T15:00:29.155Z,99581.03
2019-03-10T15:03:00.459Z,99591.65
2019-03-10T15:05:31.603Z,99598.97
2019-03-10T15:08:03.936Z,99609.74
2019-03-10T15:10:35.153Z,99591.91
2019-03-10T15:13:06.295Z,99607.30
2019-03-10T15:15:37.394Z,99609.69
2019-03-10T15:18:08.616Z,99598.53
2019-03-10T15:20:39.769Z,99626.95
2019-03-10T15:23:10.983Z,99612.07
2019-03-10T15:25:42.084Z,99612.05
2019-03-10T15:28:13.214Z,99615.64
2019-03-10T15:30:44.365Z,99623.83
2019-03-10T15:33:15.649Z,99621.72
2019-03-10T15:35:46.838Z,99638.94
2019-03-10T15:38:17.976Z,99633.60
2019-03-10T15:40:49.276Z,99642.87
2019-03-10T15:43:20.433Z,99638.44
2019-03-10T15:45:51.614Z,99629.55
2019-03-10T15:48:22.777Z,99645.91
2019-03-10T15:50:54.080Z,99643.67
2019-03-10T15:53:26.254Z,99652.13
2019-03-10T15:55:57.422Z,99644.82
2019-03-10T15:58:28.725Z,99658.86
2019-03-10T16:00:59.947Z,99660.06
2019-03-10T16:03:32.046Z,99659.04
2019-03-10T16:06:03.441Z,99659.69
2019-03-10T16:08:35.159Z,99657.14
2019-03-10T16:11:06.360Z,99665.14
2019-03-10T16:13:38.520Z,99672.48
2019-03-10T16:16:09.876Z,99660.09
2019-03-10T16:18:41.311Z,99668.20
2019-03-10T16:21:12.442Z,99665.12
2019-03-10T16:23:43.640Z,99681.13
2019-03-10T16:26:14.861Z,99681.95
2019-03-10T16:28:46.628Z,99692.61
2019-03-10T16:31:18.173Z,99709.02
2019-03-10T16:33:53.293Z,99716.03
2019-03-10T16:36:24.635Z,99723.96
2019-03-10T16:39:03.021Z,99720.25
2019-03-10T16:41:43.274Z,99727.44
2019-03-10T16:44:14.817Z,99737.80
2019-03-10T16:46:47.416Z,99738.87
2019-03-10T16:49:18.823Z,99736.97
2019-03-10T16:51:51.087Z,99739.80
2019-03-10T16:54:22.398Z,99737.80
2019-03-10T16:56:53.595Z,99729.77
2019-03-10T16:59:24.942Z,99743.44
2019-03-10T17:01:57.752Z,99735.97
2019-03-10T17:04:29.227Z,99739.38
2019-03-10T17:07:00.417Z,99747.00
2019-03-10T17:09:31.869Z,99735.67
2019-03-10T17:12:03.073Z,99739.09
2019-03-10T17:14:34.235Z,99735.24
2019-03-10T17:17:05.577Z,99746.50
2019-03-10T17:19:36.990Z,99756.36
2019-03-10T17:22:08.279Z,99741.25
2019-03-10T17:24:39.497Z,99770.98
2019-03-10T17:27:10.893Z,99762.10
2019-03-10T17:29:42.122Z,99764.08
2019-03-10T17:32:13.148Z,99773.09
2019-03-10T17:34:44.448Z,99782.35
2019-03-10T17:37:15.709Z,99779.83
2019-03-10T17:39:46.913Z,99794.16
2019-03-10T17:42:17.965Z,99796.65
2019-03-10T17:44:49.371Z,99797.63
2019-03-10T17:47:20.496Z,99799.10
2019-03-10T17:49:51.615Z,99815.44
2019-03-10T17:52:22.700Z,99806.82
2019-03-10T17:54:54.570Z,99798.19
2019-03-10T17:57:25.498Z,99797.97
2019-03-10T17:59:56.694Z,99811.64
2019-03-10T18:02:27.720Z,99798.35
2019-03-10T18:04:59.084Z,99816.33
2019-03-10T18:07:30.114Z,99819.17
2019-03-10T18:10:01.359Z,99826.19
2019-03-10T18:12:32.623Z,99820.39
2019-03-10T18:15:09.890Z,99813.99
2019-03-10T18:17:47.913Z,99829.19
2019-03-10T18:20:20.475Z,99813.99
2019-03-10T18:22:51.835Z,99833.58
2019-03-10T18:25:23.247Z,99825.92
2019-03-10T18:27:54.292Z,99818.98
2019-03-10T18:30:28.507Z,99825.00
2019-03-10T18:32:59.801Z,99830.19
2019-03-10T18:35:31.214Z,99826.30
2019-03-10T18:38:03.447Z,99825.41
2019-03-10T18:40:34.512Z,99830.11
2019-03-10T18:43:05.612Z,99830.11
2019-03-10T18:45:36.620Z,99828.80
2019-03-10T18:48:07.703Z,99839.50
2019-03-10T18:50:38.809Z,99828.72
2019-03-10T18:53:09.982Z,99825.63
2019-03-10T18:55:41.328Z,99844.76
2019-03-10T18:58:12.558Z,99843.11
2019-03-10T19:00:43.718Z,99845.23
2019-03-10T19:03:14.873Z,99835.12
2019-03-10T19:05:45.997Z,99849.93
2019-03-10T19:08:17.191Z,99835.45
2019-03-10T19:10:48.798Z,99844.63
2019-03-10T19:13:20.478Z,99848.78
2019-03-10T19:15:51.678Z,99853.44
2019-03-10T19:18:23.423Z,99851.58
2019-03-10T19:20:54.920Z,99855.98
2019-03-10T19:23:26.557Z,99852.97
2019-03-10T19:25:58.312Z,99867.70
2019-03-10T19:28:29.823Z,99864.16
2019-03-10T19:31:01.955Z,99868.89
2019-03-10T19:33:33.084Z,99872.19
2019-03-10T19:36:04.377Z,99866.56
2019-03-10T19:38:35.724Z,99865.03
2019-03-10T19:41:07.545Z,99867.58
2019-03-10T19:43:39.499Z,99856.23
2019-03-10T19:46:10.798Z,99868.89
2019-03-10T19:48:42.094Z,99864.78
2019-03-10T19:51:13.703Z,99863.39
2019-03-10T19:53:44.865Z,99861.44
2019-03-10T19:56:16.249Z,99874.17
2019-03-10T19:58:47.464Z,99876.25
2019-03-10T20:01:18.730Z,99864.36
2019-03-10T20:03:50.109Z,99863.34
2019-03-10T20:06:21.217Z,99856.14
2019-03-10T20:08:52.566Z,99854.58
2019-03-10T20:11:23.787Z,99839.84
2019-03-10T20:13:55.182Z,99838.83
2019-03-10T20:16:26.543Z,99819.63
2019-03-10T20:18:57.798Z,99834.59
2019-03-10T20:21:30.587Z,99845.20
2019-03-10T20:24:01.883Z,99826.18
2019-03-10T20:26:33.022Z,99826.93
2019-03-10T20:29:04.408Z,99837.50
2019-03-10T20:31:35.648Z,99836.31
2019-03-10T20:34:06.942Z,99841.72
2019-03-10T20:36:39.038Z,99828.73
2019-03-10T20:39:10.308Z,99824.42
2019-03-10T20:41:41.554Z,99829.28
2019-03-10T20:44:12.963Z,99824.88
2019-03-10T20:46:45.335Z,99819.72
2019-03-10T20:49:16.599Z,99822.47
2019-03-10T20:51:47.861Z,99820.39
2019-03-10T20:54:19.214Z,99816.45
2019-03-10T20:56:50.748Z,99826.40
2019-03-10T20:59:22.080Z,99831.88
2019-03-10T21:01:53.412Z,99820.94
2019-03-10T21:04:24.682Z,99838.45
2019-03-10T21:06:56.055Z,99831.64
2019-03-10T21:09:27.584Z,99851.84
2019-03-10T21:11:58.774Z,99855.67
2019-03-10T21:14:29.970Z,99866.31
2019-03-10T21:17:01.153Z,99864.81
2019-03-10T21:19:32.275Z,99876.49
2019-03-10T21:22:03.528Z,99877.92
2019-03-10T21:24:35.705Z,99874.34
2019-03-10T21:27:07.223Z,99874.69
2019-03-10T21:29:38.842Z,99876.58
2019-03-10T21:32:10.075Z,99873.77
2019-03-10T21:34:41.277Z,99879.27
2019-03-10T21:37:12.402Z,99884.92
2019-03-10T21:39:43.664Z,99878.44
2019-03-10T21:42:14.886Z,99878.46
2019-03-10T21:44:45.795Z,99890.78
2019-03-10T21:47:17.042Z,99880.10
2019-03-10T21:49:48.085Z,99884.21
2019-03-10T21:52:19.363Z,99884.21
2019-03-10T21:54:50.431Z,99884.08
2019-03-10T21:57:21.541Z,99882.38
2019-03-10T21:59:52.559Z,99905.22
2019-03-10T22:02:23.746Z,99902.08
2019-03-10T22:04:54.925Z,99905.75
2019-03-10T22:07:26.914Z,99908.51
2019-03-10T22:09:57.889Z,99919.86
2019-03-10T22:12:29.074Z,99919.02
2019-03-10T22:15:00.004Z,99924.53
2019-03-10T22:17:31.556Z,99929.38
2019-03-10T22:20:02.929Z,99937.09
2019-03-10T22:22:37.124Z,99939.64
2019-03-10T22:25:12.876Z,99936.14
2019-03-10T22:27:45.914Z,99936.23
2019-03-10T22:30:24.672Z,99935.95
2019-03-10T22:32:56.271Z,99944.22
2019-03-10T22:35:27.563Z,99953.70
2019-03-10T22:37:58.829Z,99959.61
2019-03-10T22:40:32.705Z,99959.32
2019-03-10T22:43:03.758Z,99962.78
2019-03-10T22:45:34.847Z,99966.10
2019-03-10T22:48:05.936Z,99970.30
2019-03-10T22:50:37.055Z,99971.31
2019-03-10T22:53:09.289Z,99971.29
2019-03-10T22:55:40.280Z,99985.60
2019-03-10T22:58:12.281Z,99995.83
2019-03-10T23:00:47.826Z,99987.59
2019-03-10T23:03:20.547Z,100000.54
2019-03-10T23:05:51.755Z,100002.37
2019-03-10T23:08:23.003Z,99992.63
2019-03-10T23:10:54.297Z,99993.77
2019-03-10T23:13:25.640Z,99991.62
2019-03-10T23:15:56.850Z,99990.38
2019-03-10T23:18:29.305Z,100000.80
2019-03-10T23:21:00.534Z,99989.19
2019-03-10T23:23:31.887Z,99991.24
2019-03-10T23:26:02.867Z,99992.64
2019-03-10T23:28:34.013Z,100002.02
2019-03-10T23:31:05.243Z,100002.71
2019-03-10T23:33:36.585Z,99999.80
2019-03-10T23:36:07.639Z,100003.41
2019-03-10T23:38:38.839Z,100009.72
2019-03-10T23:41:10.154Z,99997.48
2019-03-10T23:43:41.319Z,99997.56
2019-03-10T23:46:12.375Z,99997.84
2019-03-10T23:48:43.718Z,99994.42
2019-03-10T23:51:15.176Z,99996.48
2019-03-10T23:53:46.270Z,99991.38
2019-03-10T23:56:17.400Z,99979.09
2019-03-10T23:58:50.551Z,99974.31
